createdAt,value
2024-04-18T00:02:08.278Z,15.75
2024-04-18T00:05:14.618Z,11.73
2024-04-18T00:08:19.816Z,12.93
2024-04-18T00:11:25.635Z,16.83
2024-04-18T00:14:30.730Z,13.07
2024-04-18T00:17:55.982Z,13.95
2024-04-18T00:21:01.219Z,13.75
2024-04-18T00:24:26.956Z,13.60
2024-04-18T00:27:32.351Z,15.27
2024-04-18T00:30:36.004Z,15.75
2024-04-18T00:33:41.116Z,14.05
2024-04-18T00:37:06.815Z,13.50
2024-04-18T00:40:30.447Z,14.63
2024-04-18T00:43:55.252Z,12.00
2024-04-18T00:47:08.440Z,14.37
2024-04-18T00:50:14.636Z,14.15
2024-04-18T00:53:17.908Z,16.08
2024-04-18T00:56:27.737Z,12.30
2024-04-18T00:59:51.608Z,13.43
2024-04-18T01:02:57.111Z,13.05
2024-04-18T01:06:11.738Z,12.23
2024-04-18T01:09:33.392Z,14.73
2024-04-18T01:12:58.952Z,15.15
2024-04-18T01:16:24.191Z,14.57
2024-04-18T01:19:26.743Z,16.10
2024-04-18T01:22:32.348Z,12.13
2024-04-18T01:25:34.786Z,14.68
2024-04-18T01:28:43.152Z,11.18
2024-04-18T01:32:08.447Z,12.30
2024-04-18T01:35:11.432Z,13.18
2024-04-18T01:38:25.861Z,17.73
2024-04-18T01:41:28.772Z,15.50
2024-04-18T01:44:42.672Z,14.48
2024-04-18T01:48:08.589Z,17.05
2024-04-18T01:51:37.141Z,13.83
2024-04-18T01:55:02.948Z,17.48
2024-04-18T01:58:14.031Z,14.93
2024-04-18T02:01:24.709Z,14.90
2024-04-18T02:04:30.092Z,12.05
2024-04-18T02:07:35.689Z,13.15
2024-04-18T02:10:38.237Z,13.80
2024-04-18T02:13:43.855Z,16.07
2024-04-18T02:16:48.920Z,16.30
2024-04-18T02:20:05.014Z,15.65
2024-04-18T02:23:19.058Z,16.63
2024-04-18T02:26:28.250Z,15.52
2024-04-18T02:29:33.489Z,14.18
2024-04-18T02:32:40.068Z,16.08
2024-04-18T02:35:52.442Z,16.27
2024-04-18T02:39:14.252Z,19.98
2024-04-18T02:42:20.443Z,17.80
2024-04-18T02:45:35.361Z,16.90
2024-04-18T02:49:02.057Z,18.58
2024-04-18T02:52:05.814Z,17.23
2024-04-18T02:55:23.239Z,15.67
2024-04-18T02:58:32.245Z,14.32
2024-04-18T03:01:57.570Z,14.90
2024-04-18T03:05:05.761Z,16.77
2024-04-18T03:08:09.785Z,15.25
2024-04-18T03:11:23.900Z,14.70
2024-04-18T03:14:44.865Z,13.85
2024-04-18T03:17:54.760Z,15.77
2024-04-18T03:21:13.786Z,16.55
2024-04-18T03:24:21.603Z,16.27
2024-04-18T03:27:24.537Z,17.43
2024-04-18T03:30:29.872Z,15.98
2024-04-18T03:33:44.935Z,15.52
2024-04-18T03:36:54.020Z,17.70
2024-04-18T03:40:10.559Z,17.73
2024-04-18T03:43:15.833Z,16.50
2024-04-18T03:46:21.350Z,17.27
2024-04-18T03:49:37.128Z,14.83
2024-04-18T03:52:42.672Z,15.40
2024-04-18T03:56:06.983Z,18.83
2024-04-18T03:59:09.792Z,17.83
2024-04-18T04:02:14.969Z,17.77
2024-04-18T04:05:21.548Z,18.27
2024-04-18T04:08:29.432Z,20.85
2024-04-18T04:11:50.261Z,16.17
2024-04-18T04:14:53.213Z,18.13
2024-04-18T04:17:59.243Z,29.83
2024-04-18T04:21:16.540Z,31.43
2024-04-18T04:24:25.201Z,30.73
2024-04-18T04:27:27.951Z,27.10
2024-04-18T04:30:33.755Z,24.07
2024-04-18T04:33:36.430Z,23.90
2024-04-18T04:36:42.197Z,21.63
2024-04-18T04:39:50.559Z,19.52
2024-04-18T04:43:00.625Z,24.70
2024-04-18T04:46:03.609Z,21.20
2024-04-18T04:49:15.383Z,26.75
2024-04-18T04:52:38.489Z,21.27
2024-04-18T04:55:56.467Z,23.00
2024-04-18T04:59:01.611Z,24.17
2024-04-18T05:02:05.286Z,23.53
2024-04-18T05:05:28.647Z,24.55
2024-04-18T05:08:40.676Z,26.20
2024-04-18T05:11:48.960Z,23.25
2024-04-18T05:15:10.186Z,33.03
2024-04-18T05:18:34.505Z,25.17
2024-04-18T05:21:37.121Z,28.52
2024-04-18T05:25:01.410Z,26.10
2024-04-18T05:28:12.554Z,25.30
2024-04-18T05:31:18.332Z,22.13
2024-04-18T05:34:23.542Z,25.83
2024-04-18T05:37:29.684Z,24.23
2024-04-18T05:40:35.027Z,22.52
2024-04-18T05:43:43.381Z,23.00
2024-04-18T05:46:48.625Z,20.73
2024-04-18T05:49:54.112Z,21.42
2024-04-18T05:52:59.816Z,26.67
2024-04-18T05:56:25.258Z,24.07
2024-04-18T05:59:33.109Z,24.20
2024-04-18T06:02:38.709Z,20.90
2024-04-18T06:05:44.010Z,22.00
2024-04-18T06:08:55.648Z,22.27
2024-04-18T06:12:00.980Z,21.55
2024-04-18T06:15:09.779Z,22.73
2024-04-18T06:18:14.931Z,17.60
2024-04-18T06:21:20.851Z,20.88
2024-04-18T06:24:28.010Z,20.50
2024-04-18T06:27:53.546Z,17.43
2024-04-18T06:31:01.468Z,22.55
2024-04-18T06:34:07.448Z,20.08
2024-04-18T06:37:13.224Z,17.00
2024-04-18T06:40:22.219Z,18.77
2024-04-18T06:43:27.352Z,16.25
2024-04-18T06:46:45.331Z,17.95
2024-04-18T06:49:59.790Z,15.57
2024-04-18T06:53:05.653Z,15.80
2024-04-18T06:56:10.844Z,12.70
2024-04-18T06:59:16.522Z,11.87
2024-04-18T07:02:24.653Z,8.25
2024-04-18T07:05:50.953Z,10.75
2024-04-18T07:08:59.106Z,9.13
2024-04-18T07:12:23.551Z,9.77
2024-04-18T07:15:48.712Z,9.38
2024-04-18T07:19:15.727Z,12.80
2024-04-18T07:22:32.543Z,16.35
2024-04-18T07:25:39.847Z,16.60
2024-04-18T07:29:05.393Z,13.60
2024-04-18T07:32:10.547Z,15.23
2024-04-18T07:35:19.015Z,12.13
2024-04-18T07:38:24.509Z,14.43
2024-04-18T07:41:30.213Z,15.43
2024-04-18T07:44:35.617Z,14.38
2024-04-18T07:47:42.292Z,14.82
2024-04-18T07:50:50.432Z,15.98
2024-04-18T07:53:55.960Z,13.85
2024-04-18T07:57:01.783Z,11.93
2024-04-18T08:00:09.414Z,14.20
2024-04-18T08:03:19.947Z,10.97
2024-04-18T08:06:32.630Z,12.27
2024-04-18T08:09:42.388Z,10.40
2024-04-18T08:12:53.402Z,7.63
2024-04-18T08:16:00.587Z,9.57
2024-04-18T08:19:06.284Z,6.57
2024-04-18T08:22:14.496Z,8.10
2024-04-18T08:25:20.136Z,5.65
2024-04-18T08:28:25.351Z,9.70
2024-04-18T08:31:35.463Z,7.72
2024-04-18T08:34:43.237Z,6.53
2024-04-18T08:37:53.151Z,10.98
2024-04-18T08:41:11.509Z,6.03
2024-04-18T08:44:18.445Z,4.87
2024-04-18T08:47:24.635Z,5.63
2024-04-18T08:50:32.999Z,5.53
2024-04-18T08:53:41.070Z,5.40
2024-04-18T08:56:51.780Z,5.13
2024-04-18T09:00:03.016Z,6.63
2024-04-18T09:03:09.496Z,4.80
2024-04-18T09:06:18.326Z,6.40
2024-04-18T09:09:29.234Z,7.78
2024-04-18T09:12:34.468Z,5.60
2024-04-18T09:15:41.428Z,5.97
2024-04-18T09:18:50.407Z,6.10
2024-04-18T09:21:56.054Z,6.88
2024-04-18T09:25:07.910Z,5.72
2024-04-18T09:28:13.572Z,6.28
2024-04-18T09:31:27.694Z,5.10
2024-04-18T09:34:42.716Z,4.60
2024-04-18T09:37:53.495Z,7.23
2024-04-18T09:41:15.538Z,6.55
2024-04-18T09:44:26.329Z,4.63
2024-04-18T09:47:35.346Z,4.80
2024-04-18T09:50:41.674Z,4.28
2024-04-18T09:53:48.656Z,5.13
2024-04-18T09:56:58.203Z,4.00
2024-04-18T10:00:05.443Z,4.22
2024-04-18T10:03:17.020Z,3.20
2024-04-18T10:06:26.881Z,5.00
2024-04-18T10:09:33.729Z,6.27
2024-04-18T10:12:44.664Z,4.47
2024-04-18T10:15:49.988Z,7.45
2024-04-18T10:18:56.053Z,6.77
2024-04-18T10:22:16.812Z,2.90
2024-04-18T10:25:29.059Z,4.60
2024-04-18T10:28:37.095Z,3.28
2024-04-18T10:31:42.712Z,3.65
2024-04-18T10:34:48.643Z,3.90
2024-04-18T10:37:56.906Z,4.65
2024-04-18T10:41:06.136Z,4.77
2024-04-18T10:44:16.379Z,2.60
2024-04-18T10:47:23.900Z,2.38
2024-04-18T10:50:30.230Z,5.93
2024-04-18T10:53:37.170Z,3.30
2024-04-18T10:56:42.740Z,2.00
2024-04-18T10:59:50.801Z,2.42
2024-04-18T11:03:00.481Z,3.33
2024-04-18T11:06:06.728Z,3.63
2024-04-18T11:09:12.487Z,2.45
2024-04-18T11:12:18.865Z,2.77
2024-04-18T11:15:27.569Z,5.63
2024-04-18T11:18:33.086Z,2.45
2024-04-18T11:21:38.988Z,3.83
2024-04-18T11:24:45.248Z,4.13
2024-04-18T11:27:50.869Z,3.05
2024-04-18T11:30:59.423Z,2.53
2024-04-18T11:34:05.230Z,2.97
2024-04-18T11:44:56.561Z,4.30
2024-04-18T11:48:05.137Z,2.55
2024-04-18T11:51:10.541Z,3.95
2024-04-18T11:54:16.129Z,2.07
2024-04-18T11:57:21.533Z,2.20
2024-04-18T12:00:30.623Z,2.30
2024-04-18T12:03:47.771Z,1.88
2024-04-18T12:07:08.784Z,2.42
2024-04-18T12:10:13.979Z,1.90
2024-04-18T12:13:19.646Z,1.40
2024-04-18T12:16:31.851Z,2.43
2024-04-18T12:19:56.180Z,1.98
2024-04-18T12:23:11.432Z,1.60
2024-04-18T12:26:37.055Z,1.70
2024-04-18T12:29:44.040Z,2.20
2024-04-18T12:32:51.037Z,2.80
2024-04-18T12:36:09.477Z,2.83
2024-04-18T12:39:17.241Z,3.97
2024-04-18T12:42:23.307Z,3.72
2024-04-18T12:45:29.913Z,3.65
2024-04-18T12:48:36.837Z,3.07
2024-04-18T12:51:46.578Z,2.72
2024-04-18T12:54:53.460Z,3.63
2024-04-18T12:58:02.843Z,3.10
2024-04-18T13:01:15.413Z,2.83
2024-04-18T13:04:21.063Z,2.33
2024-04-18T13:07:30.357Z,3.20
2024-04-18T13:10:55.131Z,4.15
2024-04-18T13:14:05.520Z,2.65
2024-04-18T13:17:10.734Z,3.40
2024-04-18T13:20:25.353Z,3.20
2024-04-18T13:23:33.321Z,3.20
2024-04-18T13:26:38.997Z,3.33
2024-04-18T13:29:56.074Z,7.35
2024-04-18T13:33:11.793Z,3.78
2024-04-18T13:36:17.189Z,4.65
2024-04-18T13:39:42.066Z,3.35
2024-04-18T13:42:47.281Z,4.20
2024-04-18T13:46:07.167Z,3.67
2024-04-18T13:49:12.772Z,3.08
2024-04-18T13:52:30.930Z,3.15
2024-04-18T13:55:44.894Z,4.15
2024-04-18T13:58:50.467Z,3.38
2024-04-18T14:02:05.689Z,4.78
2024-04-18T14:05:21.278Z,4.70
2024-04-18T14:08:42.352Z,3.85
2024-04-18T14:12:10.548Z,3.45
2024-04-18T14:15:29.481Z,6.40
2024-04-18T14:18:53.187Z,4.72
2024-04-18T14:22:13.852Z,4.90
2024-04-18T14:25:19.427Z,4.55
2024-04-18T14:28:47.879Z,4.95
2024-04-18T14:32:01.358Z,4.28
2024-04-18T14:35:26.588Z,6.05
2024-04-18T14:38:42.096Z,4.13
2024-04-18T14:41:48.029Z,5.43
2024-04-18T14:44:55.761Z,3.80
2024-04-18T14:48:01.762Z,4.77
2024-04-18T14:51:22.416Z,4.82
2024-04-18T14:54:28.705Z,5.55
2024-04-18T14:57:34.924Z,5.45
2024-04-18T15:00:58.684Z,4.38
2024-04-18T15:04:04.324Z,6.18
2024-04-18T15:07:30.379Z,4.40
2024-04-18T15:10:35.863Z,3.60
2024-04-18T15:13:41.423Z,4.18
2024-04-18T15:17:09.757Z,3.92
2024-04-18T15:20:15.722Z,3.17
2024-04-18T15:23:40.878Z,4.03
2024-04-18T15:27:03.944Z,3.97
2024-04-18T15:30:10.464Z,2.60
2024-04-18T15:33:18.994Z,3.10
2024-04-18T15:36:24.227Z,2.97
2024-04-18T15:39:30.090Z,6.30
2024-04-18T15:42:55.245Z,6.18
2024-04-18T15:46:07.382Z,4.63
2024-04-18T15:49:15.818Z,3.78
2024-04-18T15:52:24.186Z,3.58
2024-04-18T15:55:29.894Z,3.03
2024-04-18T15:58:35.577Z,4.40
2024-04-18T16:01:52.092Z,2.88
2024-04-18T16:05:25.422Z,3.40
2024-04-18T16:08:46.060Z,3.15
2024-04-18T16:12:12.102Z,3.10
2024-04-18T16:15:37.262Z,3.35
2024-04-18T16:18:42.948Z,3.53
2024-04-18T16:22:10.772Z,4.22
2024-04-18T16:25:25.998Z,4.55
2024-04-18T16:28:31.408Z,4.90
2024-04-18T16:31:40.032Z,3.75
2024-04-18T16:34:54.446Z,3.95
2024-04-18T16:38:13.850Z,4.33
2024-04-18T16:41:29.543Z,4.53
2024-04-18T16:44:35.116Z,4.50
2024-04-18T16:47:47.461Z,6.25
2024-04-18T16:50:53.109Z,6.53
2024-04-18T16:54:02.270Z,4.22
2024-04-18T16:57:36.976Z,5.15
2024-04-18T17:00:43.355Z,8.87
2024-04-18T17:03:52.697Z,6.80
2024-04-18T17:07:10.881Z,9.13
2024-04-18T17:10:37.793Z,9.43
2024-04-18T17:14:02.265Z,7.35
2024-04-18T17:17:08.092Z,4.85
2024-04-18T17:20:32.554Z,6.68
2024-04-18T17:23:37.953Z,5.05
2024-04-18T17:26:46.311Z,3.47
2024-04-18T17:29:51.746Z,4.85
2024-04-18T17:32:57.670Z,4.23
2024-04-18T17:36:03.804Z,4.55
2024-04-18T17:39:24.844Z,2.95
2024-04-18T17:42:32.991Z,4.37
2024-04-18T17:45:38.771Z,4.78
2024-04-18T17:48:53.370Z,4.78
2024-04-18T17:51:59.173Z,6.90
2024-04-18T17:55:04.659Z,4.45
2024-04-18T17:58:13.233Z,7.45
2024-04-18T18:01:19.831Z,7.20
2024-04-18T18:04:46.212Z,5.77
2024-04-18T18:07:51.776Z,6.55
2024-04-18T18:11:17.366Z,5.22
2024-04-18T18:14:25.252Z,6.63
2024-04-18T18:17:37.151Z,6.72
2024-04-18T18:20:42.625Z,5.55
2024-04-18T18:23:48.544Z,7.80
2024-04-18T18:27:13.075Z,6.95
2024-04-18T18:30:18.825Z,6.13
2024-04-18T18:33:24.211Z,7.07
2024-04-18T18:36:30.007Z,8.10
2024-04-18T18:39:36.010Z,7.80
2024-04-18T18:42:39.044Z,7.82
2024-04-18T18:45:47.149Z,9.37
2024-04-18T18:48:52.975Z,5.28
2024-04-18T18:51:55.688Z,8.48
2024-04-18T18:55:01.441Z,6.20
2024-04-18T18:58:05.215Z,9.25
2024-04-18T19:01:13.813Z,7.03
2024-04-18T19:04:16.856Z,8.98
2024-04-18T19:07:22.733Z,8.40
2024-04-18T19:10:28.221Z,7.82
2024-04-18T19:13:31.132Z,7.65
2024-04-18T19:16:39.231Z,9.77
2024-04-18T19:19:44.828Z,8.98
2024-04-18T19:22:48.589Z,7.95
2024-04-18T19:25:54.172Z,10.48
2024-04-18T19:28:59.505Z,11.00
2024-04-18T19:32:08.670Z,8.95
2024-04-18T19:35:14.947Z,11.43
2024-04-18T19:38:18.987Z,15.43
2024-04-18T19:41:30.142Z,8.43
2024-04-18T19:44:34.241Z,10.95
2024-04-18T19:47:42.756Z,10.93
2024-04-18T19:50:45.679Z,12.13
2024-04-18T19:54:03.131Z,13.55
2024-04-18T19:57:09.815Z,9.18
2024-04-18T20:00:16.711Z,9.30
2024-04-18T20:03:22.571Z,9.20
2024-04-18T20:06:28.186Z,13.88
2024-04-18T20:09:33.166Z,8.40
2024-04-18T20:12:39.420Z,9.45
2024-04-18T20:15:47.712Z,7.45
2024-04-18T20:18:53.262Z,8.67
2024-04-18T20:21:58.867Z,8.25
2024-04-18T20:25:01.616Z,8.27
2024-04-18T20:28:19.230Z,8.45
2024-04-18T20:31:22.582Z,9.02
2024-04-18T20:34:30.786Z,7.65
2024-04-18T20:37:33.551Z,6.60
2024-04-18T20:40:41.150Z,13.23
2024-04-18T20:43:44.070Z,11.63
2024-04-18T20:46:49.585Z,15.13
2024-04-18T20:49:56.308Z,14.13
2024-04-18T20:53:01.927Z,13.32
2024-04-18T20:56:05.263Z,12.23
2024-04-18T20:59:10.874Z,12.43
2024-04-18T21:02:13.622Z,12.23
2024-04-18T21:05:22.154Z,14.32
2024-04-18T21:08:24.953Z,14.00
2024-04-18T21:11:30.946Z,12.13
2024-04-18T21:14:41.460Z,10.55
2024-04-18T21:17:47.058Z,9.27
2024-04-18T21:20:55.940Z,12.90
2024-04-18T21:24:01.503Z,10.70
2024-04-18T21:27:24.998Z,12.63
2024-04-18T21:30:30.512Z,12.65
2024-04-18T21:33:33.216Z,10.95
2024-04-18T21:36:41.690Z,12.05
2024-04-18T21:39:44.491Z,11.85
2024-04-18T21:42:50.125Z,11.40
2024-04-18T21:45:52.885Z,12.02
2024-04-18T21:48:58.570Z,8.73
2024-04-18T21:52:07.268Z,11.57
2024-04-18T21:55:12.553Z,11.20
2024-04-18T21:58:19.107Z,9.75
2024-04-18T22:01:25.209Z,10.43
2024-04-18T22:04:30.924Z,9.40
2024-04-18T22:07:36.708Z,8.80
2024-04-18T22:10:42.131Z,9.82
2024-04-18T22:13:47.717Z,11.20
2024-04-18T22:16:50.307Z,10.15
2024-04-18T22:19:55.810Z,12.15
2024-04-18T22:23:04.913Z,9.90
2024-04-18T22:26:08.346Z,11.25
2024-04-18T22:29:13.795Z,10.02
2024-04-18T22:32:19.382Z,6.43
2024-04-18T22:35:22.113Z,8.40
2024-04-18T22:38:30.482Z,8.90
2024-04-18T22:41:35.650Z,6.85
2024-04-18T22:44:38.535Z,7.50
2024-04-18T22:47:44.292Z,8.02
2024-04-18T22:50:49.925Z,7.05
2024-04-18T22:53:58.279Z,9.17
2024-04-18T22:57:03.854Z,7.78
2024-04-18T23:00:08.995Z,9.35
2024-04-18T23:03:14.881Z,7.80
2024-04-18T23:06:17.591Z,7.10
2024-04-18T23:09:26.068Z,7.53
2024-04-18T23:12:31.307Z,6.22
2024-04-18T23:15:36.732Z,9.13
2024-04-18T23:18:44.659Z,8.00
2024-04-18T23:21:47.707Z,4.28
2024-04-18T23:25:14.009Z,9.37
2024-04-18T23:28:19.508Z,7.30
2024-04-18T23:31:22.166Z,7.10
2024-04-18T23:34:28.037Z,5.57
2024-04-18T23:37:39.142Z,6.35
2024-04-18T23:40:44.877Z,6.85
2024-04-18T23:43:50.216Z,5.97
2024-04-18T23:46:53.099Z,6.23
2024-04-18T23:49:58.515Z,6.68
2024-04-18T23:53:04.047Z,6.00
2024-04-18T23:56:09.726Z,7.80
2024-04-18T23:59:15.322Z,6.28
